メインページ
METAR-TAF:

METAR-TAF

空港 :

霞の目, 日本

霞目駐屯地

緯度: 38-14N, 経度: 140-55E, 海抜: 7m

現時点の気象観測

当レポートは21時間31分前の02:21(UTC)に作成
北西の風 14kt、最大24ktの突風を伴う
気温 1°C
湿度 55%
気圧 1016 hPa
視程10km以上
高度1000ftの雲はほとんどない

METAR: RJSU 180221Z 31014G24KT 9999 FEW010 01/M07 Q1016 RMK 1ST010 A3001

時間: 08:52 (23:52 UTC)


TAF: 見つかりません

4,000以上の空港の気象観測と天気予報(METAR報とTAF報)

利用可能な観測所は地図上に黄色い丸と赤い丸で示す。

丸の上にカーソルを重ねると観測所名を参照できる。

次にクリックすると気象観測と天気予報を参照できる。

マップの切り替え:黒色「×」印の緑ボタンをクリックして拡大、「-」印の緑ボタンをクリックして縮小、緑色の三角印をクリックして隣りの地図に切り替え


METAR-TAF: